sensor_id;sensor_type;location;lat;lon;timestamp;temperature;humidity
12841;DHT22;6487;48.626;12.486;2022-09-09T00:00:21;14.90;99.90
12841;DHT22;6487;48.626;12.486;2022-09-09T00:02:57;14.90;99.90
12841;DHT22;6487;48.626;12.486;2022-09-09T00:05:33;14.90;99.90
12841;DHT22;6487;48.626;12.486;2022-09-09T00:08:15;15.00;99.90
12841;DHT22;6487;48.626;12.486;2022-09-09T00:10:51;14.90;99.90
12841;DHT22;6487;48.626;12.486;2022-09-09T00:13:26;14.90;99.90
12841;DHT22;6487;48.626;12.486;2022-09-09T00:16:04;14.90;99.90
12841;DHT22;6487;48.626;12.486;2022-09-09T00:18:46;14.90;99.90
12841;DHT22;6487;48.626;12.486;2022-09-09T00:21:21;14.90;99.90
12841;DHT22;6487;48.626;12.486;2022-09-09T00:23:54;14.80;99.90
12841;DHT22;6487;48.626;12.486;2022-09-09T00:26:30;14.80;99.90
12841;DHT22;6487;48.626;12.486;2022-09-09T00:29:10;14.80;99.90
12841;DHT22;6487;48.626;12.486;2022-09-09T00:31:44;14.80;99.90
12841;DHT22;6487;48.626;12.486;2022-09-09T00:34:18;14.70;99.90
12841;DHT22;6487;48.626;12.486;2022-09-09T00:36:50;14.70;99.90
12841;DHT22;6487;48.626;12.486;2022-09-09T00:39:24;14.70;99.90
12841;DHT22;6487;48.626;12.486;2022-09-09T00:42:11;14.70;99.90
12841;DHT22;6487;48.626;12.486;2022-09-09T00:44:52;14.60;99.90
12841;DHT22;6487;48.626;12.486;2022-09-09T00:47:39;14.60;99.90
12841;DHT22;6487;48.626;12.486;2022-09-09T00:50:30;14.60;99.90
12841;DHT22;6487;48.626;12.486;2022-09-09T00:53:19;14.60;99.90
12841;DHT22;6487;48.626;12.486;2022-09-09T00:56:03;14.60;99.90
12841;DHT22;6487;48.626;12.486;2022-09-09T00:58:37;14.60;99.90
12841;DHT22;6487;48.626;12.486;2022-09-09T01:01:10;14.50;99.90
12841;DHT22;6487;48.626;12.486;2022-09-09T01:03:45;14.50;99.90
12841;DHT22;6487;48.626;12.486;2022-09-09T01:06:22;14.40;99.90
12841;DHT22;6487;48.626;12.486;2022-09-09T01:09:13;14.40;99.90
12841;DHT22;6487;48.626;12.486;2022-09-09T01:11:57;14.50;99.90
12841;DHT22;6487;48.626;12.486;2022-09-09T01:14:39;14.30;99.90
12841;DHT22;6487;48.626;12.486;2022-09-09T01:17:15;14.20;99.90
12841;DHT22;6487;48.626;12.486;2022-09-09T01:19:55;14.20;99.90
12841;DHT22;6487;48.626;12.486;2022-09-09T01:22:34;14.20;99.90
12841;DHT22;6487;48.626;12.486;2022-09-09T01:25:28;14.20;99.90
12841;DHT22;6487;48.626;12.486;2022-09-09T01:28:00;14.20;99.90
12841;DHT22;6487;48.626;12.486;2022-09-09T01:30:32;14.20;99.90
12841;DHT22;6487;48.626;12.486;2022-09-09T01:33:01;14.30;99.90
12841;DHT22;6487;48.626;12.486;2022-09-09T01:35:37;14.20;99.90
12841;DHT22;6487;48.626;12.486;2022-09-09T01:38:18;14.20;99.90
12841;DHT22;6487;48.626;12.486;2022-09-09T01:40:46;14.20;99.90
12841;DHT22;6487;48.626;12.486;2022-09-09T01:43:17;14.10;99.90
12841;DHT22;6487;48.626;12.486;2022-09-09T01:45:46;14.20;99.90
12841;DHT22;6487;48.626;12.486;2022-09-09T01:48:15;14.10;99.90
12841;DHT22;6487;48.626;12.486;2022-09-09T01:50:44;14.00;99.90
12841;DHT22;6487;48.626;12.486;2022-09-09T01:53:14;14.00;99.90
12841;DHT22;6487;48.626;12.486;2022-09-09T01:55:47;13.90;99.90
12841;DHT22;6487;48.626;12.486;2022-09-09T01:58:32;13.90;99.90
12841;DHT22;6487;48.626;12.486;2022-09-09T02:01:11;13.90;99.90
12841;DHT22;6487;48.626;12.486;2022-09-09T02:03:47;13.70;99.90
12841;DHT22;6487;48.626;12.486;2022-09-09T02:06:27;13.90;99.90
12841;DHT22;6487;48.626;12.486;2022-09-09T02:08:59;13.80;99.90
12841;DHT22;6487;48.626;12.486;2022-09-09T02:11:31;13.80;99.90
12841;DHT22;6487;48.626;12.486;2022-09-09T02:14:04;13.60;99.90
12841;DHT22;6487;48.626;12.486;2022-09-09T02:16:39;13.70;99.90
12841;DHT22;6487;48.626;12.486;2022-09-09T02:19:13;13.70;99.90
12841;DHT22;6487;48.626;12.486;2022-09-09T02:21:45;13.60;99.90
12841;DHT22;6487;48.626;12.486;2022-09-09T02:24:15;13.70;99.90
12841;DHT22;6487;48.626;12.486;2022-09-09T02:26:46;13.70;99.90
12841;DHT22;6487;48.626;12.486;2022-09-09T02:29:24;13.70;99.90
12841;DHT22;6487;48.626;12.486;2022-09-09T02:31:57;13.70;99.90
12841;DHT22;6487;48.626;12.486;2022-09-09T02:34:30;13.70;99.90
12841;DHT22;6487;48.626;12.486;2022-09-09T02:37:01;13.80;99.90
12841;DHT22;6487;48.626;12.486;2022-09-09T02:39:31;13.70;99.90
12841;DHT22;6487;48.626;12.486;2022-09-09T02:41:59;13.70;99.90
12841;DHT22;6487;48.626;12.486;2022-09-09T02:44:31;13.70;99.90
12841;DHT22;6487;48.626;12.486;2022-09-09T02:47:13;13.70;99.90
12841;DHT22;6487;48.626;12.486;2022-09-09T02:49:58;13.80;99.90
12841;DHT22;6487;48.626;12.486;2022-09-09T02:52:38;13.70;99.90
12841;DHT22;6487;48.626;12.486;2022-09-09T02:55:20;13.70;99.90
12841;DHT22;6487;48.626;12.486;2022-09-09T02:57:52;13.70;99.90
12841;DHT22;6487;48.626;12.486;2022-09-09T03:00:25;13.60;99.90
12841;DHT22;6487;48.626;12.486;2022-09-09T03:02:55;13.70;99.90
12841;DHT22;6487;48.626;12.486;2022-09-09T03:05:24;13.70;99.90
12841;DHT22;6487;48.626;12.486;2022-09-09T03:07:52;13.60;99.90
12841;DHT22;6487;48.626;12.486;2022-09-09T03:10:21;13.60;99.90
12841;DHT22;6487;48.626;12.486;2022-09-09T03:12:49;13.60;99.90
12841;DHT22;6487;48.626;12.486;2022-09-09T03:15:18;13.70;99.90
12841;DHT22;6487;48.626;12.486;2022-09-09T03:17:47;13.70;99.90
12841;DHT22;6487;48.626;12.486;2022-09-09T03:20:16;13.70;99.90
12841;DHT22;6487;48.626;12.486;2022-09-09T03:22:44;13.60;99.90
12841;DHT22;6487;48.626;12.486;2022-09-09T03:25:12;13.60;99.90
12841;DHT22;6487;48.626;12.486;2022-09-09T03:27:41;13.60;99.90
12841;DHT22;6487;48.626;12.486;2022-09-09T03:30:10;13.60;99.90
12841;DHT22;6487;48.626;12.486;2022-09-09T03:32:38;13.60;99.90
12841;DHT22;6487;48.626;12.486;2022-09-09T03:35:08;13.60;99.90
12841;DHT22;6487;48.626;12.486;2022-09-09T03:37:37;13.60;99.90
12841;DHT22;6487;48.626;12.486;2022-09-09T03:40:06;13.60;99.90
12841;DHT22;6487;48.626;12.486;2022-09-09T03:42:36;13.50;99.90
12841;DHT22;6487;48.626;12.486;2022-09-09T03:45:07;13.50;99.90
12841;DHT22;6487;48.626;12.486;2022-09-09T03:47:37;13.50;99.90
12841;DHT22;6487;48.626;12.486;2022-09-09T03:50:07;13.50;99.90
12841;DHT22;6487;48.626;12.486;2022-09-09T03:52:38;13.40;99.90
12841;DHT22;6487;48.626;12.486;2022-09-09T03:55:08;13.40;99.90
12841;DHT22;6487;48.626;12.486;2022-09-09T03:57:36;13.50;99.90
12841;DHT22;6487;48.626;12.486;2022-09-09T04:00:07;13.50;99.90
12841;DHT22;6487;48.626;12.486;2022-09-09T04:02:36;13.40;99.90
12841;DHT22;6487;48.626;12.486;2022-09-09T04:05:08;13.40;99.90
12841;DHT22;6487;48.626;12.486;2022-09-09T04:07:36;13.30;99.90
12841;DHT22;6487;48.626;12.486;2022-09-09T04:10:05;13.40;99.90
12841;DHT22;6487;48.626;12.486;2022-09-09T04:12:35;13.40;99.90
12841;DHT22;6487;48.626;12.486;2022-09-09T04:15:04;13.40;99.90
12841;DHT22;6487;48.626;12.486;2022-09-09T04:17:33;13.40;99.90
12841;DHT22;6487;48.626;12.486;2022-09-09T04:20:03;13.40;99.90
12841;DHT22;6487;48.626;12.486;2022-09-09T04:22:33;13.30;99.90
12841;DHT22;6487;48.626;12.486;2022-09-09T04:25:01;13.30;99.90
12841;DHT22;6487;48.626;12.486;2022-09-09T04:27:29;13.30;99.90
12841;DHT22;6487;48.626;12.486;2022-09-09T04:29:58;13.30;99.90
12841;DHT22;6487;48.626;12.486;2022-09-09T04:32:26;13.30;99.90
12841;DHT22;6487;48.626;12.486;2022-09-09T04:34:54;13.30;99.90
12841;DHT22;6487;48.626;12.486;2022-09-09T04:37:23;13.30;99.90
12841;DHT22;6487;48.626;12.486;2022-09-09T04:39:52;13.30;99.90
12841;DHT22;6487;48.626;12.486;2022-09-09T04:42:21;13.30;99.90
12841;DHT22;6487;48.626;12.486;2022-09-09T04:44:49;13.30;99.90
12841;DHT22;6487;48.626;12.486;2022-09-09T04:47:17;13.20;99.90
12841;DHT22;6487;48.626;12.486;2022-09-09T04:49:46;13.30;99.90
12841;DHT22;6487;48.626;12.486;2022-09-09T04:52:14;13.30;99.90
12841;DHT22;6487;48.626;12.486;2022-09-09T04:54:43;13.20;99.90
12841;DHT22;6487;48.626;12.486;2022-09-09T04:57:14;13.20;99.90
12841;DHT22;6487;48.626;12.486;2022-09-09T04:59:44;13.20;99.90
12841;DHT22;6487;48.626;12.486;2022-09-09T05:02:12;13.20;99.90
12841;DHT22;6487;48.626;12.486;2022-09-09T05:04:41;13.20;99.90
12841;DHT22;6487;48.626;12.486;2022-09-09T05:07:09;13.10;99.90
12841;DHT22;6487;48.626;12.486;2022-09-09T05:09:37;13.20;99.90
12841;DHT22;6487;48.626;12.486;2022-09-09T05:12:06;13.20;99.90
12841;DHT22;6487;48.626;12.486;2022-09-09T05:14:36;13.20;99.90
12841;DHT22;6487;48.626;12.486;2022-09-09T05:17:04;13.20;99.90
12841;DHT22;6487;48.626;12.486;2022-09-09T05:19:33;13.20;99.90
12841;DHT22;6487;48.626;12.486;2022-09-09T05:22:01;13.20;99.90
12841;DHT22;6487;48.626;12.486;2022-09-09T05:24:30;13.30;99.90
12841;DHT22;6487;48.626;12.486;2022-09-09T05:27:00;13.30;99.90
12841;DHT22;6487;48.626;12.486;2022-09-09T05:29:29;13.30;99.90
12841;DHT22;6487;48.626;12.486;2022-09-09T05:32:01;13.30;99.90
12841;DHT22;6487;48.626;12.486;2022-09-09T05:34:30;13.40;99.90
12841;DHT22;6487;48.626;12.486;2022-09-09T05:36:59;13.40;99.90
12841;DHT22;6487;48.626;12.486;2022-09-09T05:39:27;13.30;99.90
12841;DHT22;6487;48.626;12.486;2022-09-09T05:41:55;13.40;99.90
12841;DHT22;6487;48.626;12.486;2022-09-09T05:44:24;13.30;99.90
12841;DHT22;6487;48.626;12.486;2022-09-09T05:46:54;13.30;99.90
12841;DHT22;6487;48.626;12.486;2022-09-09T05:49:24;13.40;99.90
12841;DHT22;6487;48.626;12.486;2022-09-09T05:51:53;13.40;99.90
12841;DHT22;6487;48.626;12.486;2022-09-09T05:54:22;13.50;99.90
12841;DHT22;6487;48.626;12.486;2022-09-09T05:56:50;13.50;99.90
12841;DHT22;6487;48.626;12.486;2022-09-09T05:59:20;13.50;99.90
12841;DHT22;6487;48.626;12.486;2022-09-09T06:01:50;13.50;99.90
12841;DHT22;6487;48.626;12.486;2022-09-09T06:04:20;13.60;99.90
12841;DHT22;6487;48.626;12.486;2022-09-09T06:06:52;13.60;99.90
12841;DHT22;6487;48.626;12.486;2022-09-09T06:09:20;13.60;99.90
12841;DHT22;6487;48.626;12.486;2022-09-09T06:11:49;13.70;99.90
12841;DHT22;6487;48.626;12.486;2022-09-09T06:14:17;13.70;99.90
12841;DHT22;6487;48.626;12.486;2022-09-09T06:16:46;13.70;99.90
12841;DHT22;6487;48.626;12.486;2022-09-09T06:19:14;13.80;99.90
12841;DHT22;6487;48.626;12.486;2022-09-09T06:21:42;13.90;99.90
12841;DHT22;6487;48.626;12.486;2022-09-09T06:24:12;14.00;99.90
12841;DHT22;6487;48.626;12.486;2022-09-09T06:26:44;14.20;99.90
12841;DHT22;6487;48.626;12.486;2022-09-09T06:29:12;14.30;99.90
12841;DHT22;6487;48.626;12.486;2022-09-09T06:31:40;14.40;99.90
12841;DHT22;6487;48.626;12.486;2022-09-09T06:34:09;14.50;99.90
12841;DHT22;6487;48.626;12.486;2022-09-09T06:36:38;14.70;99.90
12841;DHT22;6487;48.626;12.486;2022-09-09T06:39:07;14.70;99.90
12841;DHT22;6487;48.626;12.486;2022-09-09T06:41:42;14.80;99.90
12841;DHT22;6487;48.626;12.486;2022-09-09T06:44:10;14.80;99.90
12841;DHT22;6487;48.626;12.486;2022-09-09T06:46:39;14.80;99.90
12841;DHT22;6487;48.626;12.486;2022-09-09T06:49:08;14.80;99.90
12841;DHT22;6487;48.626;12.486;2022-09-09T06:51:37;14.90;99.90
12841;DHT22;6487;48.626;12.486;2022-09-09T06:54:10;14.90;99.90
12841;DHT22;6487;48.626;12.486;2022-09-09T06:56:40;15.00;99.90
12841;DHT22;6487;48.626;12.486;2022-09-09T06:59:12;15.00;99.90
12841;DHT22;6487;48.626;12.486;2022-09-09T07:01:41;15.00;99.90
12841;DHT22;6487;48.626;12.486;2022-09-09T07:04:11;15.10;99.90
12841;DHT22;6487;48.626;12.486;2022-09-09T07:06:41;15.10;99.90
12841;DHT22;6487;48.626;12.486;2022-09-09T07:09:13;15.10;99.90
12841;DHT22;6487;48.626;12.486;2022-09-09T07:11:46;15.10;99.90
12841;DHT22;6487;48.626;12.486;2022-09-09T07:14:15;15.00;99.90
12841;DHT22;6487;48.626;12.486;2022-09-09T07:16:45;15.00;99.90
12841;DHT22;6487;48.626;12.486;2022-09-09T07:19:13;15.10;99.90
12841;DHT22;6487;48.626;12.486;2022-09-09T07:21:43;15.10;99.90
12841;DHT22;6487;48.626;12.486;2022-09-09T07:24:11;15.20;99.90
12841;DHT22;6487;48.626;12.486;2022-09-09T07:26:40;15.20;99.90
12841;DHT22;6487;48.626;12.486;2022-09-09T07:29:10;15.20;99.90
12841;DHT22;6487;48.626;12.486;2022-09-09T07:31:46;15.20;99.90
12841;DHT22;6487;48.626;12.486;2022-09-09T07:34:15;15.10;99.90
12841;DHT22;6487;48.626;12.486;2022-09-09T07:36:43;15.20;99.90
12841;DHT22;6487;48.626;12.486;2022-09-09T07:39:13;15.10;99.90
12841;DHT22;6487;48.626;12.486;2022-09-09T07:41:45;15.20;99.90
12841;DHT22;6487;48.626;12.486;2022-09-09T07:44:17;15.20;99.90
12841;DHT22;6487;48.626;12.486;2022-09-09T07:46:48;15.20;99.90
12841;DHT22;6487;48.626;12.486;2022-09-09T07:49:17;15.20;99.90
12841;DHT22;6487;48.626;12.486;2022-09-09T07:51:54;15.20;99.90
12841;DHT22;6487;48.626;12.486;2022-09-09T07:54:22;15.20;99.90
12841;DHT22;6487;48.626;12.486;2022-09-09T07:56:51;15.30;99.90
12841;DHT22;6487;48.626;12.486;2022-09-09T07:59:21;15.40;99.90
12841;DHT22;6487;48.626;12.486;2022-09-09T08:01:52;15.40;99.90
12841;DHT22;6487;48.626;12.486;2022-09-09T08:04:23;15.40;99.90
12841;DHT22;6487;48.626;12.486;2022-09-09T08:06:54;15.50;99.90
12841;DHT22;6487;48.626;12.486;2022-09-09T08:09:24;15.60;99.90
12841;DHT22;6487;48.626;12.486;2022-09-09T08:11:56;15.60;99.90
12841;DHT22;6487;48.626;12.486;2022-09-09T08:14:26;15.60;99.90
12841;DHT22;6487;48.626;12.486;2022-09-09T08:16:55;15.60;99.90
12841;DHT22;6487;48.626;12.486;2022-09-09T08:19:23;15.50;99.90
12841;DHT22;6487;48.626;12.486;2022-09-09T08:21:52;15.30;99.90
12841;DHT22;6487;48.626;12.486;2022-09-09T08:24:20;15.20;99.90
12841;DHT22;6487;48.626;12.486;2022-09-09T08:26:49;15.20;99.90
12841;DHT22;6487;48.626;12.486;2022-09-09T08:29:18;15.40;99.90
12841;DHT22;6487;48.626;12.486;2022-09-09T08:31:49;15.50;99.90
12841;DHT22;6487;48.626;12.486;2022-09-09T08:34:19;15.60;99.90
12841;DHT22;6487;48.626;12.486;2022-09-09T08:36:49;15.70;99.90
12841;DHT22;6487;48.626;12.486;2022-09-09T08:39:20;15.80;99.90
12841;DHT22;6487;48.626;12.486;2022-09-09T08:42:16;15.90;99.90
12841;DHT22;6487;48.626;12.486;2022-09-09T08:45:12;16.00;99.90
12841;DHT22;6487;48.626;12.486;2022-09-09T08:48:01;16.00;99.90
12841;DHT22;6487;48.626;12.486;2022-09-09T08:50:37;16.00;99.90
12841;DHT22;6487;48.626;12.486;2022-09-09T08:53:13;16.10;99.90
12841;DHT22;6487;48.626;12.486;2022-09-09T08:55:47;16.20;99.90
12841;DHT22;6487;48.626;12.486;2022-09-09T08:58:18;16.20;99.90
12841;DHT22;6487;48.626;12.486;2022-09-09T09:01:32;16.20;99.90
12841;DHT22;6487;48.626;12.486;2022-09-09T09:04:17;16.20;99.90
12841;DHT22;6487;48.626;12.486;2022-09-09T09:07:03;16.20;99.90
12841;DHT22;6487;48.626;12.486;2022-09-09T09:09:40;16.30;99.90
12841;DHT22;6487;48.626;12.486;2022-09-09T09:12:16;16.40;99.90
12841;DHT22;6487;48.626;12.486;2022-09-09T09:14:47;16.40;99.90
12841;DHT22;6487;48.626;12.486;2022-09-09T09:17:18;16.40;99.90
12841;DHT22;6487;48.626;12.486;2022-09-09T09:19:49;16.40;99.90
12841;DHT22;6487;48.626;12.486;2022-09-09T09:22:20;16.40;99.90
12841;DHT22;6487;48.626;12.486;2022-09-09T09:24:54;16.40;99.90
12841;DHT22;6487;48.626;12.486;2022-09-09T09:27:31;16.40;99.90
12841;DHT22;6487;48.626;12.486;2022-09-09T09:30:12;16.40;99.90
12841;DHT22;6487;48.626;12.486;2022-09-09T09:32:58;16.50;99.90
12841;DHT22;6487;48.626;12.486;2022-09-09T09:35:29;16.50;99.90
12841;DHT22;6487;48.626;12.486;2022-09-09T09:37:57;16.60;99.90
12841;DHT22;6487;48.626;12.486;2022-09-09T09:40:51;16.70;99.90
12841;DHT22;6487;48.626;12.486;2022-09-09T09:43:26;16.60;99.90
12841;DHT22;6487;48.626;12.486;2022-09-09T09:45:56;16.60;99.90
12841;DHT22;6487;48.626;12.486;2022-09-09T09:48:44;16.60;99.90
12841;DHT22;6487;48.626;12.486;2022-09-09T09:51:16;16.70;99.90
12841;DHT22;6487;48.626;12.486;2022-09-09T09:53:45;16.70;99.90
12841;DHT22;6487;48.626;12.486;2022-09-09T09:56:14;16.80;99.90
12841;DHT22;6487;48.626;12.486;2022-09-09T09:58:50;16.90;99.90
12841;DHT22;6487;48.626;12.486;2022-09-09T10:01:22;16.80;99.90
12841;DHT22;6487;48.626;12.486;2022-09-09T10:03:53;16.80;99.90
12841;DHT22;6487;48.626;12.486;2022-09-09T10:06:35;16.80;99.90
12841;DHT22;6487;48.626;12.486;2022-09-09T10:09:21;16.80;99.90
12841;DHT22;6487;48.626;12.486;2022-09-09T10:11:55;16.80;99.90
12841;DHT22;6487;48.626;12.486;2022-09-09T10:14:32;16.80;99.90
12841;DHT22;6487;48.626;12.486;2022-09-09T10:17:14;16.90;99.90
12841;DHT22;6487;48.626;12.486;2022-09-09T10:19:57;17.00;99.90
12841;DHT22;6487;48.626;12.486;2022-09-09T10:22:34;17.00;99.90
12841;DHT22;6487;48.626;12.486;2022-09-09T10:25:16;17.00;99.90
12841;DHT22;6487;48.626;12.486;2022-09-09T10:28:00;17.00;99.90
12841;DHT22;6487;48.626;12.486;2022-09-09T10:30:47;17.00;99.90
12841;DHT22;6487;48.626;12.486;2022-09-09T10:33:28;17.00;99.90
12841;DHT22;6487;48.626;12.486;2022-09-09T10:36:11;16.80;99.90
12841;DHT22;6487;48.626;12.486;2022-09-09T10:38:45;16.90;99.90
12841;DHT22;6487;48.626;12.486;2022-09-09T10:41:18;16.80;99.90
12841;DHT22;6487;48.626;12.486;2022-09-09T10:47:25;16.80;99.90
12841;DHT22;6487;48.626;12.486;2022-09-09T10:50:14;16.80;99.90
12841;DHT22;6487;48.626;12.486;2022-09-09T10:53:16;16.80;99.90
12841;DHT22;6487;48.626;12.486;2022-09-09T10:55:51;16.90;99.90
12841;DHT22;6487;48.626;12.486;2022-09-09T10:58:25;17.00;99.90
12841;DHT22;6487;48.626;12.486;2022-09-09T11:00:59;16.80;99.90
12841;DHT22;6487;48.626;12.486;2022-09-09T11:03:29;16.80;99.90
12841;DHT22;6487;48.626;12.486;2022-09-09T11:06:04;16.90;99.90
12841;DHT22;6487;48.626;12.486;2022-09-09T11:08:37;17.00;99.90
12841;DHT22;6487;48.626;12.486;2022-09-09T11:11:12;16.90;99.90
12841;DHT22;6487;48.626;12.486;2022-09-09T11:13:48;16.90;99.90
12841;DHT22;6487;48.626;12.486;2022-09-09T11:16:24;16.70;99.90
12841;DHT22;6487;48.626;12.486;2022-09-09T11:18:59;16.70;99.90
12841;DHT22;6487;48.626;12.486;2022-09-09T11:21:36;16.70;99.90
12841;DHT22;6487;48.626;12.486;2022-09-09T11:24:11;16.70;99.90
12841;DHT22;6487;48.626;12.486;2022-09-09T11:26:49;16.70;99.90
12841;DHT22;6487;48.626;12.486;2022-09-09T11:32:56;16.90;99.90
12841;DHT22;6487;48.626;12.486;2022-09-09T11:35:38;16.50;99.90
12841;DHT22;6487;48.626;12.486;2022-09-09T11:38:21;16.70;99.90
12841;DHT22;6487;48.626;12.486;2022-09-09T11:40:58;16.50;99.90
12841;DHT22;6487;48.626;12.486;2022-09-09T11:43:31;16.60;99.90
12841;DHT22;6487;48.626;12.486;2022-09-09T11:46:02;16.70;99.90
12841;DHT22;6487;48.626;12.486;2022-09-09T11:48:33;16.90;99.90
12841;DHT22;6487;48.626;12.486;2022-09-09T11:51:06;17.00;99.90
12841;DHT22;6487;48.626;12.486;2022-09-09T11:53:50;16.70;99.90
12841;DHT22;6487;48.626;12.486;2022-09-09T11:56:28;16.70;99.90
12841;DHT22;6487;48.626;12.486;2022-09-09T11:59:01;17.00;99.90
12841;DHT22;6487;48.626;12.486;2022-09-09T12:01:35;17.20;99.90
12841;DHT22;6487;48.626;12.486;2022-09-09T12:04:18;17.20;99.90
12841;DHT22;6487;48.626;12.486;2022-09-09T12:06:58;17.10;99.90
12841;DHT22;6487;48.626;12.486;2022-09-09T12:09:42;17.30;99.90
12841;DHT22;6487;48.626;12.486;2022-09-09T12:12:34;17.50;99.90
12841;DHT22;6487;48.626;12.486;2022-09-09T12:15:26;17.40;99.90
12841;DHT22;6487;48.626;12.486;2022-09-09T12:17:57;17.50;99.90
12841;DHT22;6487;48.626;12.486;2022-09-09T12:20:34;17.50;99.90
12841;DHT22;6487;48.626;12.486;2022-09-09T12:23:27;17.70;99.90
12841;DHT22;6487;48.626;12.486;2022-09-09T12:26:07;17.80;99.90
12841;DHT22;6487;48.626;12.486;2022-09-09T12:28:51;17.90;99.90
12841;DHT22;6487;48.626;12.486;2022-09-09T12:31:30;17.90;99.90
12841;DHT22;6487;48.626;12.486;2022-09-09T12:34:09;18.10;99.90
12841;DHT22;6487;48.626;12.486;2022-09-09T12:36:39;18.00;99.90
12841;DHT22;6487;48.626;12.486;2022-09-09T12:39:27;18.40;99.90
12841;DHT22;6487;48.626;12.486;2022-09-09T12:41:59;18.50;99.90
12841;DHT22;6487;48.626;12.486;2022-09-09T12:44:28;18.30;99.90
12841;DHT22;6487;48.626;12.486;2022-09-09T12:47:00;18.30;99.90
12841;DHT22;6487;48.626;12.486;2022-09-09T12:49:32;18.50;99.90
12841;DHT22;6487;48.626;12.486;2022-09-09T12:52:04;18.60;99.90
12841;DHT22;6487;48.626;12.486;2022-09-09T12:54:37;18.70;99.90
12841;DHT22;6487;48.626;12.486;2022-09-09T12:57:09;19.00;99.90
12841;DHT22;6487;48.626;12.486;2022-09-09T12:59:40;19.10;99.90
12841;DHT22;6487;48.626;12.486;2022-09-09T13:02:19;19.40;99.90
12841;DHT22;6487;48.626;12.486;2022-09-09T13:04:49;19.30;99.90
12841;DHT22;6487;48.626;12.486;2022-09-09T13:07:18;19.20;99.90
12841;DHT22;6487;48.626;12.486;2022-09-09T13:09:49;19.50;99.90
12841;DHT22;6487;48.626;12.486;2022-09-09T13:12:19;19.60;99.90
12841;DHT22;6487;48.626;12.486;2022-09-09T13:14:52;19.60;99.90
12841;DHT22;6487;48.626;12.486;2022-09-09T13:17:25;20.00;99.90
12841;DHT22;6487;48.626;12.486;2022-09-09T13:19:56;20.30;99.90
12841;DHT22;6487;48.626;12.486;2022-09-09T13:22:30;20.60;99.90
12841;DHT22;6487;48.626;12.486;2022-09-09T13:25:02;20.40;99.90
12841;DHT22;6487;48.626;12.486;2022-09-09T13:27:34;20.50;99.90
12841;DHT22;6487;48.626;12.486;2022-09-09T13:30:21;20.60;99.90
12841;DHT22;6487;48.626;12.486;2022-09-09T13:33:17;20.60;99.90
12841;DHT22;6487;48.626;12.486;2022-09-09T13:35:51;20.20;99.90
12841;DHT22;6487;48.626;12.486;2022-09-09T13:38:22;20.80;99.90
12841;DHT22;6487;48.626;12.486;2022-09-09T13:40:57;21.10;99.90
12841;DHT22;6487;48.626;12.486;2022-09-09T13:43:30;21.30;99.90
12841;DHT22;6487;48.626;12.486;2022-09-09T13:46:01;21.30;99.90
12841;DHT22;6487;48.626;12.486;2022-09-09T13:48:32;21.00;99.90
12841;DHT22;6487;48.626;12.486;2022-09-09T13:51:02;21.00;99.90
12841;DHT22;6487;48.626;12.486;2022-09-09T13:53:32;21.00;99.90
12841;DHT22;6487;48.626;12.486;2022-09-09T13:56:01;21.30;99.90
12841;DHT22;6487;48.626;12.486;2022-09-09T13:58:29;21.50;99.60
12841;DHT22;6487;48.626;12.486;2022-09-09T14:00:57;21.20;99.60
12841;DHT22;6487;48.626;12.486;2022-09-09T14:03:26;21.00;99.90
12841;DHT22;6487;48.626;12.486;2022-09-09T14:05:55;21.40;99.90
12841;DHT22;6487;48.626;12.486;2022-09-09T14:08:26;21.60;99.90
12841;DHT22;6487;48.626;12.486;2022-09-09T14:10:55;21.10;99.90
12841;DHT22;6487;48.626;12.486;2022-09-09T14:13:26;21.20;99.90
12841;DHT22;6487;48.626;12.486;2022-09-09T14:15:54;21.30;99.10
12841;DHT22;6487;48.626;12.486;2022-09-09T14:18:23;20.60;99.70
12841;DHT22;6487;48.626;12.486;2022-09-09T14:20:52;20.90;99.90
12841;DHT22;6487;48.626;12.486;2022-09-09T14:23:22;20.80;99.80
12841;DHT22;6487;48.626;12.486;2022-09-09T14:25:51;20.90;99.50
12841;DHT22;6487;48.626;12.486;2022-09-09T14:30:54;20.90;99.80
12841;DHT22;6487;48.626;12.486;2022-09-09T14:33:22;20.90;99.90
12841;DHT22;6487;48.626;12.486;2022-09-09T14:35:56;20.80;99.90
12841;DHT22;6487;48.626;12.486;2022-09-09T14:38:29;20.60;99.90
12841;DHT22;6487;48.626;12.486;2022-09-09T14:40:58;20.80;99.90
12841;DHT22;6487;48.626;12.486;2022-09-09T14:43:27;20.30;99.90
12841;DHT22;6487;48.626;12.486;2022-09-09T14:45:56;20.60;99.90
12841;DHT22;6487;48.626;12.486;2022-09-09T14:48:24;20.60;99.90
12841;DHT22;6487;48.626;12.486;2022-09-09T14:50:53;20.80;99.90
12841;DHT22;6487;48.626;12.486;2022-09-09T14:53:22;20.70;99.90
12841;DHT22;6487;48.626;12.486;2022-09-09T14:55:51;20.60;99.80
12841;DHT22;6487;48.626;12.486;2022-09-09T14:58:19;20.70;99.90
12841;DHT22;6487;48.626;12.486;2022-09-09T15:00:48;20.70;99.90
12841;DHT22;6487;48.626;12.486;2022-09-09T15:03:16;20.80;99.90
12841;DHT22;6487;48.626;12.486;2022-09-09T15:05:44;20.60;99.80
12841;DHT22;6487;48.626;12.486;2022-09-09T15:08:12;20.80;99.90
12841;DHT22;6487;48.626;12.486;2022-09-09T15:10:43;20.60;99.80
12841;DHT22;6487;48.626;12.486;2022-09-09T15:13:14;20.40;99.90
12841;DHT22;6487;48.626;12.486;2022-09-09T15:15:43;20.30;99.90
12841;DHT22;6487;48.626;12.486;2022-09-09T15:18:12;20.00;99.90
12841;DHT22;6487;48.626;12.486;2022-09-09T15:20:44;20.20;99.90
12841;DHT22;6487;48.626;12.486;2022-09-09T15:23:13;20.20;99.90
12841;DHT22;6487;48.626;12.486;2022-09-09T15:25:50;20.20;99.90
12841;DHT22;6487;48.626;12.486;2022-09-09T15:28:21;20.10;99.90
12841;DHT22;6487;48.626;12.486;2022-09-09T15:30:51;20.00;99.90
12841;DHT22;6487;48.626;12.486;2022-09-09T15:33:21;19.90;99.90
12841;DHT22;6487;48.626;12.486;2022-09-09T15:35:50;20.00;99.90
12841;DHT22;6487;48.626;12.486;2022-09-09T15:38:18;20.10;99.90
12841;DHT22;6487;48.626;12.486;2022-09-09T15:40:53;20.30;99.90
12841;DHT22;6487;48.626;12.486;2022-09-09T15:43:23;20.10;99.60
12841;DHT22;6487;48.626;12.486;2022-09-09T15:45:58;20.10;99.90
12841;DHT22;6487;48.626;12.486;2022-09-09T15:48:46;20.00;99.90
12841;DHT22;6487;48.626;12.486;2022-09-09T15:51:20;20.00;99.90
12841;DHT22;6487;48.626;12.486;2022-09-09T15:54:10;19.90;99.90
12841;DHT22;6487;48.626;12.486;2022-09-09T15:56:40;19.80;99.90
12841;DHT22;6487;48.626;12.486;2022-09-09T15:59:10;19.80;99.90
12841;DHT22;6487;48.626;12.486;2022-09-09T16:01:39;19.90;99.90
12841;DHT22;6487;48.626;12.486;2022-09-09T16:04:09;19.90;99.90
12841;DHT22;6487;48.626;12.486;2022-09-09T16:06:37;19.80;99.90
12841;DHT22;6487;48.626;12.486;2022-09-09T16:09:06;19.80;99.90
12841;DHT22;6487;48.626;12.486;2022-09-09T16:11:37;19.70;99.90
12841;DHT22;6487;48.626;12.486;2022-09-09T16:14:07;19.70;99.90
12841;DHT22;6487;48.626;12.486;2022-09-09T16:16:37;19.60;99.90